sensor_id;sensor_type;location;lat;lon;timestamp;pressure;altitude;pressure_sealevel;temperature;humidity
22649;BME280;11491;41.942;24.220;2023-04-26T00:01:49;88996.69;;;8.39;92.67
22649;BME280;11491;41.942;24.220;2023-04-26T00:04:17;88993.06;;;8.48;92.65
22649;BME280;11491;41.942;24.220;2023-04-26T00:06:44;88992.41;;;8.54;92.00
22649;BME280;11491;41.942;24.220;2023-04-26T00:09:11;88987.00;;;8.51;91.94
22649;BME280;11491;41.942;24.220;2023-04-26T00:11:40;88990.91;;;8.57;91.66
22649;BME280;11491;41.942;24.220;2023-04-26T00:14:07;88993.88;;;8.52;91.94
22649;BME280;11491;41.942;24.220;2023-04-26T00:16:34;88990.31;;;8.44;92.09
22649;BME280;11491;41.942;24.220;2023-04-26T00:19:00;88986.25;;;8.50;92.05
22649;BME280;11491;41.942;24.220;2023-04-26T00:21:28;88972.22;;;8.53;92.15
22649;BME280;11491;41.942;24.220;2023-04-26T00:23:55;88967.22;;;8.52;91.43
22649;BME280;11491;41.942;24.220;2023-04-26T00:26:22;88962.59;;;8.29;90.07
22649;BME280;11491;41.942;24.220;2023-04-26T00:28:51;88965.84;;;8.19;90.16
22649;BME280;11491;41.942;24.220;2023-04-26T00:31:17;88960.94;;;8.21;90.45
22649;BME280;11491;41.942;24.220;2023-04-26T00:33:44;88947.44;;;8.10;91.49
22649;BME280;11491;41.942;24.220;2023-04-26T00:36:12;88950.44;;;8.09;91.50
22649;BME280;11491;41.942;24.220;2023-04-26T00:38:39;88947.19;;;7.99;91.13
22649;BME280;11491;41.942;24.220;2023-04-26T00:41:06;88948.59;;;7.93;91.32
22649;BME280;11491;41.942;24.220;2023-04-26T00:43:33;88946.31;;;7.57;91.35
22649;BME280;11491;41.942;24.220;2023-04-26T00:46:02;88951.25;;;7.03;94.27
22649;BME280;11491;41.942;24.220;2023-04-26T00:48:29;88947.38;;;6.69;97.41
22649;BME280;11491;41.942;24.220;2023-04-26T00:50:56;88949.84;;;6.46;99.76
22649;BME280;11491;41.942;24.220;2023-04-26T00:53:23;88941.28;;;6.37;100.00
22649;BME280;11491;41.942;24.220;2023-04-26T00:55:50;88952.06;;;6.44;100.00
22649;BME280;11491;41.942;24.220;2023-04-26T00:58:18;88940.41;;;6.33;100.00
22649;BME280;11491;41.942;24.220;2023-04-26T01:00:45;88954.56;;;6.53;100.00
22649;BME280;11491;41.942;24.220;2023-04-26T01:03:13;88957.31;;;6.56;100.00
22649;BME280;11491;41.942;24.220;2023-04-26T01:05:40;88955.69;;;6.67;100.00
22649;BME280;11491;41.942;24.220;2023-04-26T01:08:07;88943.88;;;6.81;99.97
22649;BME280;11491;41.942;24.220;2023-04-26T01:10:34;88927.94;;;6.81;99.65
22649;BME280;11491;41.942;24.220;2023-04-26T01:13:01;88941.28;;;7.00;99.79
22649;BME280;11491;41.942;24.220;2023-04-26T01:15:29;88938.28;;;7.02;98.40
22649;BME280;11491;41.942;24.220;2023-04-26T01:17:58;88929.44;;;7.14;97.51
22649;BME280;11491;41.942;24.220;2023-04-26T01:20:26;88931.13;;;7.22;96.31
22649;BME280;11491;41.942;24.220;2023-04-26T01:22:54;88930.44;;;7.25;96.12
22649;BME280;11491;41.942;24.220;2023-04-26T01:25:22;88928.22;;;7.27;96.03
22649;BME280;11491;41.942;24.220;2023-04-26T01:27:48;88932.00;;;7.26;95.22
22649;BME280;11491;41.942;24.220;2023-04-26T01:30:15;88944.25;;;7.30;95.23
22649;BME280;11491;41.942;24.220;2023-04-26T01:32:42;88946.56;;;7.32;94.64
22649;BME280;11491;41.942;24.220;2023-04-26T01:35:09;88950.56;;;7.42;94.73
22649;BME280;11491;41.942;24.220;2023-04-26T01:37:36;88951.06;;;7.47;94.07
22649;BME280;11491;41.942;24.220;2023-04-26T01:40:06;88953.38;;;7.49;94.03
22649;BME280;11491;41.942;24.220;2023-04-26T01:42:34;88945.47;;;7.52;94.17
22649;BME280;11491;41.942;24.220;2023-04-26T01:45:01;88950.78;;;7.52;94.41
22649;BME280;11491;41.942;24.220;2023-04-26T01:47:28;88953.19;;;7.58;94.69
22649;BME280;11491;41.942;24.220;2023-04-26T01:49:55;88952.13;;;7.62;94.64
22649;BME280;11491;41.942;24.220;2023-04-26T01:52:21;88946.31;;;7.57;92.43
22649;BME280;11491;41.942;24.220;2023-04-26T01:54:48;88936.28;;;7.50;92.82
22649;BME280;11491;41.942;24.220;2023-04-26T01:57:16;88942.31;;;7.47;93.99
22649;BME280;11491;41.942;24.220;2023-04-26T01:59:43;88940.16;;;7.52;94.47
22649;BME280;11491;41.942;24.220;2023-04-26T02:02:10;88933.16;;;7.44;95.04
22649;BME280;11491;41.942;24.220;2023-04-26T02:04:37;88926.38;;;7.47;94.94
22649;BME280;11491;41.942;24.220;2023-04-26T02:07:03;88915.66;;;7.43;94.72
22649;BME280;11491;41.942;24.220;2023-04-26T02:09:30;88926.28;;;7.43;94.63
22649;BME280;11491;41.942;24.220;2023-04-26T02:11:57;88925.59;;;7.46;93.84
22649;BME280;11491;41.942;24.220;2023-04-26T02:14:25;88933.19;;;7.28;93.25
22649;BME280;11491;41.942;24.220;2023-04-26T02:16:52;88933.72;;;7.02;95.19
22649;BME280;11491;41.942;24.220;2023-04-26T02:19:19;88937.34;;;6.94;96.38
22649;BME280;11491;41.942;24.220;2023-04-26T02:21:50;88928.50;;;7.06;96.63
22649;BME280;11491;41.942;24.220;2023-04-26T02:24:17;88933.38;;;7.20;97.47
22649;BME280;11491;41.942;24.220;2023-04-26T02:26:44;88928.16;;;7.23;97.75
22649;BME280;11491;41.942;24.220;2023-04-26T02:29:11;88925.56;;;7.27;98.19
22649;BME280;11491;41.942;24.220;2023-04-26T02:31:39;88921.53;;;7.33;97.88
22649;BME280;11491;41.942;24.220;2023-04-26T02:34:05;88920.81;;;7.36;97.34
22649;BME280;11491;41.942;24.220;2023-04-26T02:36:32;88912.56;;;7.41;96.98
22649;BME280;11491;41.942;24.220;2023-04-26T02:39:00;88909.81;;;7.38;96.75
22649;BME280;11491;41.942;24.220;2023-04-26T02:41:26;88904.66;;;7.45;96.28
22649;BME280;11491;41.942;24.220;2023-04-26T02:43:53;88899.22;;;7.57;95.73
22649;BME280;11491;41.942;24.220;2023-04-26T02:46:20;88899.16;;;7.53;94.50
22649;BME280;11491;41.942;24.220;2023-04-26T02:48:48;88902.09;;;7.48;93.69
22649;BME280;11491;41.942;24.220;2023-04-26T02:51:15;88912.78;;;7.52;93.35
22649;BME280;11491;41.942;24.220;2023-04-26T02:53:41;88912.19;;;7.59;91.88
22649;BME280;11491;41.942;24.220;2023-04-26T02:56:08;88900.38;;;7.40;91.59
22649;BME280;11491;41.942;24.220;2023-04-26T02:58:35;88914.81;;;7.39;92.42
22649;BME280;11491;41.942;24.220;2023-04-26T03:01:04;88905.28;;;6.87;95.23
22649;BME280;11491;41.942;24.220;2023-04-26T03:03:31;88914.75;;;6.68;97.21
22649;BME280;11491;41.942;24.220;2023-04-26T03:05:59;88902.56;;;6.67;97.79
22649;BME280;11491;41.942;24.220;2023-04-26T03:08:26;88902.41;;;6.76;98.00
22649;BME280;11491;41.942;24.220;2023-04-26T03:10:53;88912.84;;;6.85;97.07
22649;BME280;11491;41.942;24.220;2023-04-26T03:13:21;88909.84;;;6.86;96.79
22649;BME280;11491;41.942;24.220;2023-04-26T03:15:48;88914.41;;;6.86;97.12
22649;BME280;11491;41.942;24.220;2023-04-26T03:18:16;88913.53;;;6.82;97.42
22649;BME280;11491;41.942;24.220;2023-04-26T03:20:44;88908.38;;;6.89;97.35
22649;BME280;11491;41.942;24.220;2023-04-26T03:23:12;88897.22;;;6.99;96.92
22649;BME280;11491;41.942;24.220;2023-04-26T03:25:39;88906.22;;;7.10;95.44
22649;BME280;11491;41.942;24.220;2023-04-26T03:28:06;88908.72;;;7.03;93.28
22649;BME280;11491;41.942;24.220;2023-04-26T03:30:32;88911.22;;;6.96;93.50
22649;BME280;11491;41.942;24.220;2023-04-26T03:32:59;88911.53;;;6.95;94.04
22649;BME280;11491;41.942;24.220;2023-04-26T03:35:26;88904.00;;;6.97;94.47
22649;BME280;11491;41.942;24.220;2023-04-26T03:37:53;88900.69;;;6.84;94.86
22649;BME280;11491;41.942;24.220;2023-04-26T03:40:21;88899.97;;;6.87;94.91
22649;BME280;11491;41.942;24.220;2023-04-26T03:42:47;88902.53;;;6.99;93.44
22649;BME280;11491;41.942;24.220;2023-04-26T03:45:14;88903.31;;;7.00;93.35
22649;BME280;11491;41.942;24.220;2023-04-26T03:47:41;88908.63;;;7.00;92.54
22649;BME280;11491;41.942;24.220;2023-04-26T03:50:08;88905.53;;;6.98;92.05
22649;BME280;11491;41.942;24.220;2023-04-26T03:52:35;88905.28;;;6.87;92.88
22649;BME280;11491;41.942;24.220;2023-04-26T03:55:03;88914.88;;;6.76;93.48
22649;BME280;11491;41.942;24.220;2023-04-26T03:57:32;88920.22;;;6.92;91.37
22649;BME280;11491;41.942;24.220;2023-04-26T03:59:58;88921.25;;;6.71;91.65
22649;BME280;11491;41.942;24.220;2023-04-26T04:02:25;88921.25;;;6.55;92.94
22649;BME280;11491;41.942;24.220;2023-04-26T04:04:52;88929.75;;;6.61;93.90
22649;BME280;11491;41.942;24.220;2023-04-26T04:07:18;88926.47;;;6.67;94.14
22649;BME280;11491;41.942;24.220;2023-04-26T04:09:46;88928.44;;;6.71;94.06
22649;BME280;11491;41.942;24.220;2023-04-26T04:12:12;88926.97;;;6.73;94.09
22649;BME280;11491;41.942;24.220;2023-04-26T04:14:41;88934.09;;;6.85;93.46
22649;BME280;11491;41.942;24.220;2023-04-26T04:17:07;88928.34;;;6.83;92.71
22649;BME280;11491;41.942;24.220;2023-04-26T04:19:34;88938.31;;;6.86;93.06
22649;BME280;11491;41.942;24.220;2023-04-26T04:22:01;88938.22;;;6.82;93.72
22649;BME280;11491;41.942;24.220;2023-04-26T04:24:31;88935.38;;;6.91;94.50
22649;BME280;11491;41.942;24.220;2023-04-26T04:26:58;88940.69;;;7.07;94.04
22649;BME280;11491;41.942;24.220;2023-04-26T04:29:25;88944.53;;;7.09;93.44
22649;BME280;11491;41.942;24.220;2023-04-26T04:31:54;88937.00;;;7.11;93.54
22649;BME280;11491;41.942;24.220;2023-04-26T04:34:20;88929.88;;;7.16;93.88
22649;BME280;11491;41.942;24.220;2023-04-26T04:36:48;88928.38;;;7.34;93.91
22649;BME280;11491;41.942;24.220;2023-04-26T04:39:14;88937.59;;;7.40;92.76
22649;BME280;11491;41.942;24.220;2023-04-26T04:41:41;88941.41;;;7.39;92.27
22649;BME280;11491;41.942;24.220;2023-04-26T04:44:12;88941.63;;;7.50;91.13
22649;BME280;11491;41.942;24.220;2023-04-26T04:46:40;88940.31;;;7.60;89.25
22649;BME280;11491;41.942;24.220;2023-04-26T04:49:10;88942.91;;;7.56;89.03
22649;BME280;11491;41.942;24.220;2023-04-26T04:51:37;88938.31;;;7.37;89.47
22649;BME280;11491;41.942;24.220;2023-04-26T04:54:10;88941.28;;;7.51;89.58
22649;BME280;11491;41.942;24.220;2023-04-26T04:56:37;88944.31;;;7.34;90.20
22649;BME280;11491;41.942;24.220;2023-04-26T04:59:05;88947.56;;;7.43;90.45
22649;BME280;11491;41.942;24.220;2023-04-26T05:01:32;88937.91;;;7.54;90.76
22649;BME280;11491;41.942;24.220;2023-04-26T05:03:59;88934.03;;;7.68;89.79
22649;BME280;11491;41.942;24.220;2023-04-26T05:06:28;88935.28;;;7.74;89.91
22649;BME280;11491;41.942;24.220;2023-04-26T05:08:56;88933.75;;;7.73;89.91
22649;BME280;11491;41.942;24.220;2023-04-26T05:11:23;88933.19;;;7.83;89.64
22649;BME280;11491;41.942;24.220;2023-04-26T05:13:50;88934.31;;;8.02;87.97
22649;BME280;11491;41.942;24.220;2023-04-26T05:16:17;88929.84;;;8.06;90.33
22649;BME280;11491;41.942;24.220;2023-04-26T05:18:43;88926.66;;;8.19;90.45
22649;BME280;11491;41.942;24.220;2023-04-26T05:21:10;88922.91;;;8.40;89.99
22649;BME280;11491;41.942;24.220;2023-04-26T05:23:38;88924.81;;;8.62;88.66
22649;BME280;11491;41.942;24.220;2023-04-26T05:26:06;88924.34;;;8.80;83.59
22649;BME280;11491;41.942;24.220;2023-04-26T05:28:33;88915.38;;;8.92;83.29
22649;BME280;11491;41.942;24.220;2023-04-26T05:31:00;88906.38;;;9.00;85.59
22649;BME280;11491;41.942;24.220;2023-04-26T05:33:27;88921.13;;;9.17;84.62
22649;BME280;11491;41.942;24.220;2023-04-26T05:35:53;88913.78;;;9.37;82.52
22649;BME280;11491;41.942;24.220;2023-04-26T05:38:22;88916.34;;;9.56;81.40
22649;BME280;11491;41.942;24.220;2023-04-26T05:40:50;88919.38;;;9.81;81.53
22649;BME280;11491;41.942;24.220;2023-04-26T05:43:17;88915.34;;;9.98;80.47
22649;BME280;11491;41.942;24.220;2023-04-26T05:45:49;88920.88;;;10.12;77.31
22649;BME280;11491;41.942;24.220;2023-04-26T05:48:16;88921.16;;;10.34;79.18
22649;BME280;11491;41.942;24.220;2023-04-26T05:50:43;88914.75;;;10.42;76.18
22649;BME280;11491;41.942;24.220;2023-04-26T05:53:10;88921.78;;;10.57;76.90
22649;BME280;11491;41.942;24.220;2023-04-26T05:55:36;88916.97;;;10.74;75.51
22649;BME280;11491;41.942;24.220;2023-04-26T05:58:05;88908.69;;;10.86;75.45
22649;BME280;11491;41.942;24.220;2023-04-26T06:00:32;88908.75;;;10.93;75.49
22649;BME280;11491;41.942;24.220;2023-04-26T06:02:58;88916.88;;;11.04;75.18
22649;BME280;11491;41.942;24.220;2023-04-26T06:05:25;88911.53;;;11.08;75.14
22649;BME280;11491;41.942;24.220;2023-04-26T06:07:52;88908.22;;;11.25;73.51
22649;BME280;11491;41.942;24.220;2023-04-26T06:10:19;88907.25;;;11.48;70.96
22649;BME280;11491;41.942;24.220;2023-04-26T06:12:46;88905.41;;;11.55;72.26
22649;BME280;11491;41.942;24.220;2023-04-26T06:15:14;88900.91;;;11.70;73.06
22649;BME280;11491;41.942;24.220;2023-04-26T06:17:41;88880.56;;;11.62;73.52
22649;BME280;11491;41.942;24.220;2023-04-26T06:20:08;88904.13;;;11.97;73.39
22649;BME280;11491;41.942;24.220;2023-04-26T06:22:35;88907.00;;;11.67;73.11
22649;BME280;11491;41.942;24.220;2023-04-26T06:25:06;88911.63;;;11.70;72.81
22649;BME280;11491;41.942;24.220;2023-04-26T06:27:33;88913.91;;;11.68;75.12
22649;BME280;11491;41.942;24.220;2023-04-26T06:30:00;88911.53;;;11.56;73.33
22649;BME280;11491;41.942;24.220;2023-04-26T06:32:28;88918.84;;;11.11;75.38
22649;BME280;11491;41.942;24.220;2023-04-26T06:34:55;88905.00;;;10.61;75.19
22649;BME280;11491;41.942;24.220;2023-04-26T06:37:21;88911.25;;;10.38;75.80
22649;BME280;11491;41.942;24.220;2023-04-26T06:39:48;88917.88;;;10.18;78.14
22649;BME280;11491;41.942;24.220;2023-04-26T06:42:15;88906.56;;;10.28;79.28
22649;BME280;11491;41.942;24.220;2023-04-26T06:44:42;88908.78;;;10.22;78.27
22649;BME280;11491;41.942;24.220;2023-04-26T06:47:08;88908.13;;;10.29;78.52
22649;BME280;11491;41.942;24.220;2023-04-26T06:49:37;88916.47;;;10.27;77.84
22649;BME280;11491;41.942;24.220;2023-04-26T06:52:03;88916.53;;;10.31;77.55
22649;BME280;11491;41.942;24.220;2023-04-26T06:54:31;88909.41;;;10.42;78.27
22649;BME280;11491;41.942;24.220;2023-04-26T06:56:58;88903.00;;;10.50;77.96
22649;BME280;11491;41.942;24.220;2023-04-26T06:59:25;88905.47;;;10.70;77.13
22649;BME280;11491;41.942;24.220;2023-04-26T07:01:51;88912.13;;;10.87;79.88
22649;BME280;11491;41.942;24.220;2023-04-26T07:04:19;88911.16;;;11.06;75.50
22649;BME280;11491;41.942;24.220;2023-04-26T07:06:47;88907.41;;;11.14;75.47
22649;BME280;11491;41.942;24.220;2023-04-26T07:09:14;88905.06;;;11.09;75.99
22649;BME280;11491;41.942;24.220;2023-04-26T07:11:41;88881.97;;;10.86;73.58
22649;BME280;11491;41.942;24.220;2023-04-26T07:14:09;88905.91;;;11.20;74.66
22649;BME280;11491;41.942;24.220;2023-04-26T07:16:37;88912.94;;;11.42;74.07
22649;BME280;11491;41.942;24.220;2023-04-26T07:19:03;88900.91;;;11.70;72.00
22649;BME280;11491;41.942;24.220;2023-04-26T07:21:31;88898.81;;;12.01;73.84
22649;BME280;11491;41.942;24.220;2023-04-26T07:23:59;88904.25;;;12.29;71.36
22649;BME280;11491;41.942;24.220;2023-04-26T07:26:26;88899.00;;;12.58;72.09
22649;BME280;11491;41.942;24.220;2023-04-26T07:28:53;88913.59;;;12.79;70.15
22649;BME280;11491;41.942;24.220;2023-04-26T07:31:20;88907.88;;;12.84;69.48
22649;BME280;11491;41.942;24.220;2023-04-26T07:33:47;88908.25;;;12.79;66.16
22649;BME280;11491;41.942;24.220;2023-04-26T07:36:13;88911.34;;;12.95;67.44
22649;BME280;11491;41.942;24.220;2023-04-26T07:38:40;88915.19;;;13.15;67.21
22649;BME280;11491;41.942;24.220;2023-04-26T07:41:08;88906.38;;;12.97;65.45
22649;BME280;11491;41.942;24.220;2023-04-26T07:43:37;88905.97;;;12.88;64.26
22649;BME280;11491;41.942;24.220;2023-04-26T07:46:04;88906.28;;;12.58;66.24
22649;BME280;11491;41.942;24.220;2023-04-26T07:48:30;88909.72;;;12.51;64.33
22649;BME280;11491;41.942;24.220;2023-04-26T07:51:05;88905.09;;;12.37;67.35
22649;BME280;11491;41.942;24.220;2023-04-26T07:53:32;88917.25;;;12.20;70.91
22649;BME280;11491;41.942;24.220;2023-04-26T07:55:59;88905.72;;;12.09;71.56
22649;BME280;11491;41.942;24.220;2023-04-26T07:58:27;88906.38;;;11.88;69.75
22649;BME280;11491;41.942;24.220;2023-04-26T08:00:54;88915.81;;;11.68;69.03
22649;BME280;11491;41.942;24.220;2023-04-26T08:03:21;88913.75;;;11.47;70.64
22649;BME280;11491;41.942;24.220;2023-04-26T08:05:47;88920.63;;;11.48;73.79
22649;BME280;11491;41.942;24.220;2023-04-26T08:08:14;88919.75;;;11.29;72.62
22649;BME280;11491;41.942;24.220;2023-04-26T08:10:41;88891.69;;;11.09;73.85
22649;BME280;11491;41.942;24.220;2023-04-26T08:13:08;88920.31;;;11.05;74.03
22649;BME280;11491;41.942;24.220;2023-04-26T08:15:36;88895.75;;;10.92;74.11
22649;BME280;11491;41.942;24.220;2023-04-26T08:18:03;88930.25;;;11.04;74.05
22649;BME280;11491;41.942;24.220;2023-04-26T08:20:30;88928.47;;;10.78;73.15
22649;BME280;11491;41.942;24.220;2023-04-26T08:22:58;88923.84;;;10.75;74.56
22649;BME280;11491;41.942;24.220;2023-04-26T08:25:25;88932.22;;;10.70;76.22
22649;BME280;11491;41.942;24.220;2023-04-26T08:27:52;88931.34;;;10.59;75.25
22649;BME280;11491;41.942;24.220;2023-04-26T08:30:18;88936.94;;;10.46;77.97
22649;BME280;11491;41.942;24.220;2023-04-26T08:32:47;88942.31;;;10.20;77.23
22649;BME280;11491;41.942;24.220;2023-04-26T08:35:13;88936.28;;;9.92;78.57
22649;BME280;11491;41.942;24.220;2023-04-26T08:37:41;88957.38;;;10.01;81.07
22649;BME280;11491;41.942;24.220;2023-04-26T08:40:08;88953.97;;;9.74;80.59
22649;BME280;11491;41.942;24.220;2023-04-26T08:42:39;88969.94;;;8.75;83.31
22649;BME280;11491;41.942;24.220;2023-04-26T08:45:07;88978.41;;;7.64;86.42
22649;BME280;11491;41.942;24.220;2023-04-26T08:47:39;88982.50;;;7.10;88.98
22649;BME280;11491;41.942;24.220;2023-04-26T08:50:12;88993.59;;;6.96;95.32
22649;BME280;11491;41.942;24.220;2023-04-26T08:52:40;88981.84;;;6.97;98.28
22649;BME280;11491;41.942;24.220;2023-04-26T08:55:08;88975.19;;;7.23;97.20
22649;BME280;11491;41.942;24.220;2023-04-26T08:57:37;88970.81;;;7.46;99.83
22649;BME280;11491;41.942;24.220;2023-04-26T09:00:06;88969.38;;;7.68;100.00
22649;BME280;11491;41.942;24.220;2023-04-26T09:02:35;88977.31;;;7.84;100.00
22649;BME280;11491;41.942;24.220;2023-04-26T09:05:02;88980.84;;;8.08;100.00
22649;BME280;11491;41.942;24.220;2023-04-26T09:07:39;88976.06;;;8.36;100.00
22649;BME280;11491;41.942;24.220;2023-04-26T09:10:06;88986.16;;;8.47;100.00
22649;BME280;11491;41.942;24.220;2023-04-26T09:12:33;88977.88;;;8.52;100.00
22649;BME280;11491;41.942;24.220;2023-04-26T09:15:00;88989.56;;;8.67;96.38
22649;BME280;11491;41.942;24.220;2023-04-26T09:17:29;88986.84;;;8.82;96.21
22649;BME280;11491;41.942;24.220;2023-04-26T09:19:57;88990.44;;;8.94;94.13
22649;BME280;11491;41.942;24.220;2023-04-26T09:22:28;88981.91;;;9.08;97.66
22649;BME280;11491;41.942;24.220;2023-04-26T09:24:57;88989.75;;;9.20;97.31
22649;BME280;11491;41.942;24.220;2023-04-26T09:27:31;88980.06;;;9.35;95.71
22649;BME280;11491;41.942;24.220;2023-04-26T09:30:05;88984.84;;;9.48;94.19
22649;BME280;11491;41.942;24.220;2023-04-26T09:32:44;88995.78;;;9.66;91.74
22649;BME280;11491;41.942;24.220;2023-04-26T09:35:21;88993.00;;;9.86;90.94
22649;BME280;11491;41.942;24.220;2023-04-26T09:37:52;88991.25;;;9.97;90.53
22649;BME280;11491;41.942;24.220;2023-04-26T09:40:21;88984.31;;;9.92;83.36
22649;BME280;11491;41.942;24.220;2023-04-26T09:42:58;88982.59;;;10.04;88.47
22649;BME280;11491;41.942;24.220;2023-04-26T09:45:26;88970.22;;;10.22;88.54
22649;BME280;11491;41.942;24.220;2023-04-26T09:47:53;88974.19;;;10.66;88.87
22649;BME280;11491;41.942;24.220;2023-04-26T09:50:27;88971.13;;;11.05;86.50
22649;BME280;11491;41.942;24.220;2023-04-26T09:52:54;88969.13;;;11.39;85.38
22649;BME280;11491;41.942;24.220;2023-04-26T09:55:29;88967.69;;;11.49;85.00
22649;BME280;11491;41.942;24.220;2023-04-26T09:57:57;88959.00;;;11.66;83.24
22649;BME280;11491;41.942;24.220;2023-04-26T10:00:25;88956.00;;;11.75;76.42
22649;BME280;11491;41.942;24.220;2023-04-26T10:02:53;88965.19;;;11.77;75.96
22649;BME280;11491;41.942;24.220;2023-04-26T10:05:20;88957.97;;;11.81;82.98
22649;BME280;11491;41.942;24.220;2023-04-26T10:07:48;88947.59;;;11.76;76.51
22649;BME280;11491;41.942;24.220;2023-04-26T10:10:15;88946.38;;;11.63;76.39
22649;BME280;11491;41.942;24.220;2023-04-26T10:12:44;88948.00;;;11.27;80.60
22649;BME280;11491;41.942;24.220;2023-04-26T10:15:11;88941.81;;;11.19;79.95
22649;BME280;11491;41.942;24.220;2023-04-26T10:17:38;88939.56;;;11.21;80.88
22649;BME280;11491;41.942;24.220;2023-04-26T10:20:08;88951.72;;;11.15;81.29
22649;BME280;11491;41.942;24.220;2023-04-26T10:22:42;88940.25;;;11.11;81.09
22649;BME280;11491;41.942;24.220;2023-04-26T10:25:10;88940.09;;;10.96;76.46
22649;BME280;11491;41.942;24.220;2023-04-26T10:27:49;88945.06;;;10.94;80.84
22649;BME280;11491;41.942;24.220;2023-04-26T10:30:18;88949.22;;;10.92;81.30
22649;BME280;11491;41.942;24.220;2023-04-26T10:33:10;88950.06;;;10.99;81.73
22649;BME280;11491;41.942;24.220;2023-04-26T10:35:58;88949.91;;;10.85;82.67
22649;BME280;11491;41.942;24.220;2023-04-26T10:38:26;88949.84;;;10.78;86.29
22649;BME280;11491;41.942;24.220;2023-04-26T10:40:52;88952.25;;;10.53;84.53
22649;BME280;11491;41.942;24.220;2023-04-26T10:43:30;88962.75;;;10.35;86.88
22649;BME280;11491;41.942;24.220;2023-04-26T10:46:33;88952.34;;;10.26;83.74
22649;BME280;11491;41.942;24.220;2023-04-26T10:49:20;88949.53;;;9.85;82.67
22649;BME280;11491;41.942;24.220;2023-04-26T10:52:07;88950.31;;;9.59;85.29
22649;BME280;11491;41.942;24.220;2023-04-26T10:54:49;88950.00;;;9.64;85.68
22649;BME280;11491;41.942;24.220;2023-04-26T10:57:17;88946.50;;;9.60;87.92
22649;BME280;11491;41.942;24.220;2023-04-26T11:03:02;88951.16;;;9.37;88.02
22649;BME280;11491;41.942;24.220;2023-04-26T11:05:49;88951.53;;;9.39;88.25
22649;BME280;11491;41.942;24.220;2023-04-26T11:08:18;88949.81;;;9.50;88.18
22649;BME280;11491;41.942;24.220;2023-04-26T11:10:49;88954.63;;;9.67;88.91
22649;BME280;11491;41.942;24.220;2023-04-26T11:13:17;88949.09;;;9.83;88.41
22649;BME280;11491;41.942;24.220;2023-04-26T11:15:45;88954.72;;;9.75;87.44
22649;BME280;11491;41.942;24.220;2023-04-26T11:18:17;88950.81;;;9.68;86.69
22649;BME280;11491;41.942;24.220;2023-04-26T11:20:44;88954.84;;;9.85;83.02
22649;BME280;11491;41.942;24.220;2023-04-26T11:23:11;88954.59;;;9.94;87.05
22649;BME280;11491;41.942;24.220;2023-04-26T11:25:38;88961.16;;;10.00;84.71
22649;BME280;11491;41.942;24.220;2023-04-26T11:28:05;88952.81;;;10.05;82.99
22649;BME280;11491;41.942;24.220;2023-04-26T11:30:32;88950.75;;;10.22;81.75
22649;BME280;11491;41.942;24.220;2023-04-26T11:33:00;88954.75;;;10.35;80.65
22649;BME280;11491;41.942;24.220;2023-04-26T11:35:32;88960.63;;;10.18;80.92
22649;BME280;11491;41.942;24.220;2023-04-26T11:38:02;88960.44;;;10.03;79.59
22649;BME280;11491;41.942;24.220;2023-04-26T11:40:31;88959.84;;;9.87;80.17
22649;BME280;11491;41.942;24.220;2023-04-26T11:42:59;88956.25;;;9.76;81.11
22649;BME280;11491;41.942;24.220;2023-04-26T11:45:26;88962.00;;;9.51;81.75
22649;BME280;11491;41.942;24.220;2023-04-26T11:47:54;88952.56;;;9.31;80.96
22649;BME280;11491;41.942;24.220;2023-04-26T11:50:21;88953.28;;;9.27;81.89
22649;BME280;11491;41.942;24.220;2023-04-26T11:52:53;88953.34;;;9.08;83.13
22649;BME280;11491;41.942;24.220;2023-04-26T11:55:23;88966.56;;;9.01;83.56
22649;BME280;11491;41.942;24.220;2023-04-26T11:57:50;88964.03;;;8.85;84.69
22649;BME280;11491;41.942;24.220;2023-04-26T12:00:18;88968.47;;;8.77;85.43
22649;BME280;11491;41.942;24.220;2023-04-26T12:02:45;88971.88;;;8.55;86.98
22649;BME280;11491;41.942;24.220;2023-04-26T12:05:23;88968.78;;;8.53;85.74
22649;BME280;11491;41.942;24.220;2023-04-26T12:07:51;88965.56;;;8.44;86.07
22649;BME280;11491;41.942;24.220;2023-04-26T12:10:23;88970.19;;;8.47;85.16
22649;BME280;11491;41.942;24.220;2023-04-26T12:12:52;88973.13;;;8.41;85.01
22649;BME280;11491;41.942;24.220;2023-04-26T12:15:22;88967.94;;;8.49;84.50
22649;BME280;11491;41.942;24.220;2023-04-26T12:17:54;88964.41;;;8.64;84.30
22649;BME280;11491;41.942;24.220;2023-04-26T12:20:28;88964.41;;;8.64;86.12
22649;BME280;11491;41.942;24.220;2023-04-26T12:22:59;88971.81;;;8.74;88.21
22649;BME280;11491;41.942;24.220;2023-04-26T12:25:26;88975.16;;;8.68;87.40
22649;BME280;11491;41.942;24.220;2023-04-26T12:27:53;88970.13;;;8.43;88.75
22649;BME280;11491;41.942;24.220;2023-04-26T12:30:20;88982.53;;;8.35;89.38
22649;BME280;11491;41.942;24.220;2023-04-26T12:32:47;88966.81;;;8.30;90.39
22649;BME280;11491;41.942;24.220;2023-04-26T12:35:14;88976.34;;;8.12;91.90
22649;BME280;11491;41.942;24.220;2023-04-26T12:37:41;88975.22;;;7.93;91.99
22649;BME280;11491;41.942;24.220;2023-04-26T12:40:10;88964.22;;;7.75;93.50
22649;BME280;11491;41.942;24.220;2023-04-26T12:42:37;88966.66;;;7.84;93.03
22649;BME280;11491;41.942;24.220;2023-04-26T12:45:05;88976.75;;;7.94;93.15
22649;BME280;11491;41.942;24.220;2023-04-26T12:47:32;88976.19;;;8.05;92.57
22649;BME280;11491;41.942;24.220;2023-04-26T12:49:58;88960.63;;;7.87;91.28
22649;BME280;11491;41.942;24.220;2023-04-26T12:52:26;88969.53;;;7.75;92.48
22649;BME280;11491;41.942;24.220;2023-04-26T12:54:53;88974.91;;;7.79;93.94
22649;BME280;11491;41.942;24.220;2023-04-26T12:57:21;88970.41;;;7.64;92.60
22649;BME280;11491;41.942;24.220;2023-04-26T12:59:48;88969.06;;;7.54;93.96
22649;BME280;11491;41.942;24.220;2023-04-26T13:02:14;88971.31;;;7.52;95.77
22649;BME280;11491;41.942;24.220;2023-04-26T13:04:41;88965.28;;;7.55;96.69
22649;BME280;11491;41.942;24.220;2023-04-26T13:07:08;88965.75;;;7.41;94.29